createdAt,value
2018-09-20T00:00:11.026Z,20.86
2018-09-20T00:01:10.608Z,20.88
2018-09-20T00:02:10.286Z,20.82
2018-09-20T00:03:11.059Z,20.85
2018-09-20T00:04:11.356Z,20.73
2018-09-20T00:05:10.698Z,20.74
2018-09-20T00:06:11.225Z,20.73
2018-09-20T00:07:11.866Z,20.79
2018-09-20T00:08:10.625Z,20.71
2018-09-20T00:09:11.348Z,20.80
2018-09-20T00:10:11.396Z,20.80
2018-09-20T00:11:10.033Z,20.83
2018-09-20T00:12:11.058Z,20.80
2018-09-20T00:13:15.881Z,20.82
2018-09-20T00:14:10.773Z,20.83
2018-09-20T00:15:09.422Z,20.83
2018-09-20T00:16:08.943Z,20.86
2018-09-20T00:17:08.896Z,20.79
2018-09-20T00:18:08.833Z,20.77
2018-09-20T00:19:08.853Z,20.82
2018-09-20T00:20:08.837Z,20.75
2018-09-20T00:21:08.757Z,20.71
2018-09-20T00:22:08.783Z,20.73
2018-09-20T00:23:08.718Z,20.67
2018-09-20T00:24:08.743Z,20.63
2018-09-20T00:25:08.677Z,20.60
2018-09-20T00:26:08.743Z,20.60
2018-09-20T00:27:34.855Z,20.53
2018-09-20T00:29:24.238Z,20.41
2018-09-20T00:30:22.523Z,20.46
2018-09-20T00:32:25.359Z,20.32
2018-09-20T00:33:26.656Z,20.29
2018-09-20T00:35:34.651Z,20.44
2018-09-20T00:36:34.148Z,20.34
2018-09-20T00:38:37.528Z,20.33
2018-09-20T00:39:34.822Z,20.29
2018-09-20T00:41:42.354Z,20.27
2018-09-20T00:42:41.737Z,20.26
2018-09-20T00:44:43.540Z,20.19
2018-09-20T00:45:44.021Z,20.26
2018-09-20T00:46:44.278Z,20.25
2018-09-20T00:47:43.970Z,20.29
2018-09-20T00:48:44.181Z,20.27
2018-09-20T01:00:40.163Z,20.19
2018-09-20T01:01:40.722Z,20.11
2018-09-20T01:02:40.647Z,20.22
2018-09-20T01:03:40.617Z,20.08
2018-09-20T01:04:40.825Z,20.11
2018-09-20T01:05:40.634Z,20.08
2018-09-20T01:06:39.977Z,20.07
2018-09-20T01:07:39.977Z,20.09
2018-09-20T01:08:40.118Z,20.05
2018-09-20T01:09:40.159Z,20.12
2018-09-20T01:11:03.520Z,20.02
2018-09-20T01:12:42.004Z,20.11
2018-09-20T01:13:42.152Z,19.99
2018-09-20T01:15:53.958Z,19.89
2018-09-20T01:16:54.536Z,19.90
2018-09-20T01:22:22.118Z,19.87
2018-09-20T01:23:20.776Z,19.82
2018-09-20T01:27:33.408Z,19.78
2018-09-20T01:28:15.053Z,19.78
2018-09-20T01:29:14.970Z,19.75
2018-09-20T01:30:15.920Z,19.79
2018-09-20T01:31:14.932Z,19.75
2018-09-20T01:32:15.449Z,19.70
2018-09-20T01:33:15.964Z,19.64
2018-09-20T01:34:15.549Z,19.59
2018-09-20T01:41:58.807Z,19.82
2018-09-20T01:42:57.116Z,19.78
2018-09-20T01:45:15.983Z,19.63
2018-09-20T01:46:16.366Z,19.68
2018-09-20T01:49:57.839Z,19.78
2018-09-20T01:50:57.739Z,19.77
2018-09-20T01:53:06.975Z,19.64
2018-09-20T01:54:06.764Z,19.67
2018-09-20T01:56:14.856Z,19.70
2018-09-20T01:57:14.782Z,19.63
2018-09-20T01:58:14.884Z,19.60
2018-09-20T01:59:14.202Z,19.59
2018-09-20T02:00:14.622Z,19.67
2018-09-20T02:01:14.115Z,19.62
2018-09-20T02:02:14.557Z,19.49
2018-09-20T02:03:15.492Z,19.54
2018-09-20T02:04:13.619Z,19.52
2018-09-20T02:08:56.579Z,19.42
2018-09-20T02:09:55.957Z,19.39
2018-09-20T02:13:40.766Z,19.47
2018-09-20T02:14:41.616Z,19.45
2018-09-20T02:16:44.999Z,19.39
2018-09-20T02:17:45.685Z,19.39
2018-09-20T02:21:33.367Z,19.41
2018-09-20T02:22:32.934Z,19.39
2018-09-20T02:28:11.235Z,19.41
2018-09-20T02:29:11.913Z,19.24
2018-09-20T02:31:43.745Z,19.27
2018-09-20T02:32:12.355Z,19.27
2018-09-20T02:33:12.051Z,19.34
2018-09-20T02:34:12.105Z,19.41
2018-09-20T02:35:12.296Z,19.35
2018-09-20T02:36:14.498Z,19.45
2018-09-20T02:37:12.056Z,19.27
2018-09-20T02:38:15.152Z,19.27
2018-09-20T02:39:11.518Z,19.24
2018-09-20T02:40:12.480Z,19.24
2018-09-20T02:41:14.321Z,19.27
2018-09-20T02:45:57.616Z,19.20
2018-09-20T02:47:17.365Z,19.23
2018-09-20T02:49:08.940Z,19.09
2018-09-20T02:50:08.349Z,19.12
2018-09-20T02:55:33.424Z,19.20
2018-09-20T02:56:31.972Z,19.19
2018-09-20T02:58:40.175Z,19.15
2018-09-20T02:59:40.839Z,19.20
2018-09-20T03:00:40.167Z,19.20
2018-09-20T03:01:39.751Z,19.19
2018-09-20T03:02:40.140Z,19.22
2018-09-20T03:03:40.428Z,19.24
2018-09-20T03:04:40.853Z,19.23
2018-09-20T03:05:40.387Z,19.12
2018-09-20T03:06:40.347Z,19.07
2018-09-20T03:07:41.438Z,19.12
2018-09-20T03:08:40.080Z,19.16
2018-09-20T03:09:40.616Z,19.05
2018-09-20T03:10:40.278Z,19.12
2018-09-20T03:20:08.189Z,19.12
2018-09-20T03:21:06.868Z,19.13
2018-09-20T03:26:49.142Z,19.09
2018-09-20T03:27:49.299Z,19.09
2018-09-20T03:28:49.249Z,19.12
2018-09-20T03:29:48.760Z,19.17
2018-09-20T03:35:45.921Z,18.94
2018-09-20T03:36:46.819Z,18.88
2018-09-20T03:38:49.283Z,18.94
2018-09-20T03:39:49.396Z,18.91
2018-09-20T03:41:52.644Z,18.93
2018-09-20T03:42:52.142Z,18.83
2018-09-20T03:48:39.411Z,18.86
2018-09-20T03:51:42.246Z,18.93
2018-09-20T03:52:42.883Z,18.81
2018-09-20T03:54:55.830Z,18.89
2018-09-20T03:55:56.316Z,18.93
2018-09-20T03:57:58.439Z,18.71
2018-09-20T03:58:59.632Z,18.74
2018-09-20T04:01:04.296Z,18.85
2018-09-20T04:02:03.708Z,18.82
2018-09-20T04:03:03.423Z,18.75
2018-09-20T04:04:03.120Z,18.75
2018-09-20T04:05:03.792Z,18.78
2018-09-20T04:06:03.722Z,18.75
2018-09-20T04:07:02.908Z,18.79
2018-09-20T04:08:04.314Z,18.78
2018-09-20T04:09:04.347Z,18.75
2018-09-20T04:10:04.824Z,18.70
2018-09-20T04:11:03.498Z,18.75
2018-09-20T04:12:03.964Z,18.64
2018-09-20T04:15:07.330Z,18.61
2018-09-20T04:16:07.674Z,18.57
2018-09-20T04:17:07.435Z,18.57
2018-09-20T04:18:07.157Z,18.61
2018-09-20T04:19:07.278Z,18.63
2018-09-20T04:20:06.611Z,18.70
2018-09-20T04:21:07.274Z,18.67
2018-09-20T04:22:07.884Z,18.63
2018-09-20T04:23:07.315Z,18.66
2018-09-20T04:31:12.830Z,18.75
2018-09-20T04:32:12.399Z,18.76
2018-09-20T04:33:12.124Z,18.75
2018-09-20T04:34:12.448Z,18.75
2018-09-20T04:35:13.404Z,18.76
2018-09-20T04:36:11.361Z,18.67
2018-09-20T04:37:13.016Z,18.81
2018-09-20T04:38:12.653Z,18.70
2018-09-20T04:44:26.247Z,18.81
2018-09-20T04:45:26.707Z,18.71
2018-09-20T04:50:59.896Z,18.67
2018-09-20T04:54:24.724Z,18.67
2018-09-20T04:55:23.475Z,18.68
2018-09-20T05:02:35.501Z,18.63
2018-09-20T05:03:36.077Z,18.71
2018-09-20T05:04:35.737Z,18.60
2018-09-20T05:05:36.512Z,18.60
2018-09-20T05:06:38.351Z,18.68
2018-09-20T05:07:36.564Z,18.61
2018-09-20T05:11:21.293Z,18.67
2018-09-20T05:12:21.513Z,18.71
2018-09-20T05:17:52.502Z,18.52
2018-09-20T05:22:33.737Z,18.56
2018-09-20T05:23:33.625Z,18.54
2018-09-20T05:25:34.856Z,18.58
2018-09-20T05:26:37.044Z,18.54
2018-09-20T05:28:39.916Z,18.60
2018-09-20T05:29:40.473Z,18.52
2018-09-20T05:36:50.620Z,18.58
2018-09-20T05:37:49.542Z,18.58
2018-09-20T05:39:57.448Z,18.68
2018-09-20T05:40:55.012Z,18.70
2018-09-20T05:41:55.040Z,18.70
2018-09-20T05:42:56.000Z,18.60
2018-09-20T05:45:46.486Z,18.68
2018-09-20T05:51:50.371Z,18.74
2018-09-20T05:52:49.369Z,18.68
2018-09-20T05:59:29.521Z,18.70
2018-09-20T06:07:43.258Z,18.71
2018-09-20T06:08:43.081Z,18.79
2018-09-20T06:14:16.032Z,18.71
2018-09-20T06:17:39.237Z,18.88
2018-09-20T06:20:49.192Z,18.94
2018-09-20T06:25:26.725Z,19.23
2018-09-20T06:26:25.832Z,19.24
2018-09-20T06:28:28.988Z,19.30
2018-09-20T06:29:28.042Z,19.23
2018-09-20T06:30:28.499Z,19.30
2018-09-20T06:31:27.904Z,19.41
2018-09-20T06:32:27.822Z,19.45
2018-09-20T06:35:17.360Z,19.59
2018-09-20T06:36:17.687Z,19.62
2018-09-20T06:38:29.946Z,19.67
2018-09-20T06:39:30.042Z,19.64
2018-09-20T06:41:30.210Z,19.68
2018-09-20T06:42:30.340Z,19.75
2018-09-20T06:43:29.020Z,19.84
2018-09-20T06:44:30.093Z,19.84
2018-09-20T06:45:31.085Z,19.87
2018-09-20T06:46:29.460Z,19.87
2018-09-20T06:47:29.467Z,19.90
2018-09-20T06:48:29.922Z,19.93
2018-09-20T06:49:55.989Z,19.84
2018-09-20T06:50:30.001Z,19.89
2018-09-20T06:51:29.323Z,19.94
2018-09-20T06:52:28.257Z,20.04
2018-09-20T06:53:29.762Z,20.02
2018-09-20T06:54:30.351Z,20.04
2018-09-20T06:55:30.609Z,19.97
2018-09-20T06:56:30.261Z,19.97
2018-09-20T06:57:30.300Z,20.02
2018-09-20T06:58:30.497Z,20.12
2018-09-20T07:05:19.985Z,20.23
2018-09-20T07:06:19.822Z,20.17
2018-09-20T07:08:32.323Z,20.23
2018-09-20T07:09:34.341Z,20.19
2018-09-20T07:10:31.813Z,20.22
2018-09-20T07:11:31.661Z,20.23
2018-09-20T07:12:31.740Z,20.29
2018-09-20T07:13:31.569Z,20.26
2018-09-20T07:14:35.743Z,20.23
2018-09-20T07:15:33.929Z,20.29
2018-09-20T07:16:37.768Z,20.30
2018-09-20T07:39:03.049Z,20.74
2018-09-20T07:40:02.547Z,20.79
2018-09-20T07:42:08.362Z,20.82
2018-09-20T08:02:46.582Z,21.26
2018-09-20T08:03:46.563Z,21.32
2018-09-20T08:04:46.115Z,21.32
2018-09-20T08:05:46.039Z,21.35
2018-09-20T08:06:46.058Z,21.32
2018-09-20T08:07:47.355Z,21.43
2018-09-20T08:08:45.924Z,21.48
2018-09-20T08:09:50.757Z,21.48
2018-09-20T08:12:44.951Z,21.50
2018-09-20T08:13:26.866Z,21.43
2018-09-20T08:50:16.991Z,22.66
2018-09-20T08:51:17.109Z,22.53
2018-09-20T08:52:17.486Z,22.71
2018-09-20T08:53:16.518Z,22.71
2018-09-20T08:54:17.997Z,22.85
2018-09-20T09:08:51.068Z,23.23
2018-09-20T09:09:49.936Z,23.17
2018-09-20T09:10:50.756Z,23.26
2018-09-20T09:11:49.167Z,23.31
2018-09-20T09:12:49.778Z,23.44
2018-09-20T09:13:50.801Z,23.41
2018-09-20T09:14:50.647Z,23.55
2018-09-20T09:15:49.994Z,23.46
2018-09-20T09:16:50.767Z,23.49
2018-09-20T09:17:51.818Z,23.67
2018-09-20T09:30:27.306Z,24.03
2018-09-20T09:31:24.731Z,24.08
2018-09-20T09:32:24.400Z,24.16
2018-09-20T09:33:29.909Z,24.26
2018-09-20T09:39:43.506Z,24.29
2018-09-20T09:40:40.614Z,24.43
2018-09-20T09:41:40.137Z,24.52
2018-09-20T09:47:57.138Z,24.60
2018-09-20T09:48:37.088Z,24.60
2018-09-20T09:50:50.559Z,24.44
2018-09-20T09:51:50.726Z,24.45
2018-09-20T09:52:50.334Z,24.53
2018-09-20T09:53:49.882Z,24.65
2018-09-20T09:54:52.011Z,24.66
2018-09-20T09:55:51.790Z,24.62
2018-09-20T09:56:56.085Z,24.60
2018-09-20T09:59:22.517Z,24.63
2018-09-20T10:01:57.758Z,24.60
2018-09-20T10:02:59.514Z,24.52
2018-09-20T10:03:58.618Z,24.56
2018-09-20T10:04:58.619Z,24.63
2018-09-20T10:06:02.413Z,24.59
2018-09-20T10:07:02.933Z,24.71
2018-09-20T10:08:17.985Z,24.90
2018-09-20T10:10:04.740Z,24.78
2018-09-20T10:11:03.613Z,24.97
2018-09-20T10:25:17.451Z,25.45
2018-09-20T10:26:15.483Z,25.43
2018-09-20T10:31:34.268Z,25.16
2018-09-20T10:32:34.214Z,25.15
2018-09-20T10:54:32.475Z,25.30
2018-09-20T10:55:31.992Z,25.43
2018-09-20T10:56:32.351Z,25.58
2018-09-20T10:57:32.264Z,25.58
2018-09-20T10:58:31.587Z,25.77
2018-09-20T10:59:32.266Z,25.83
2018-09-20T11:00:32.381Z,25.86
2018-09-20T11:01:33.066Z,25.75
2018-09-20T11:09:14.400Z,25.63
2018-09-20T11:10:12.418Z,25.71
2018-09-20T11:11:12.566Z,25.81
2018-09-20T11:12:11.814Z,25.85
2018-09-20T11:13:13.667Z,26.03
2018-09-20T11:14:12.570Z,26.52
2018-09-20T11:15:11.982Z,27.01
2018-09-20T11:16:12.020Z,27.07
2018-09-20T11:17:12.281Z,27.57
2018-09-20T11:21:40.272Z,28.17
2018-09-20T11:22:39.896Z,28.24
2018-09-20T11:31:13.551Z,27.34
2018-09-20T11:32:14.315Z,27.63
2018-09-20T11:33:14.144Z,27.58
2018-09-20T11:34:15.782Z,27.34
2018-09-20T11:35:14.357Z,27.73
2018-09-20T11:36:13.698Z,28.10
2018-09-20T11:37:12.890Z,28.42
2018-09-20T11:38:16.192Z,28.24
2018-09-20T11:39:14.955Z,28.65
2018-09-20T11:40:13.311Z,28.68
2018-09-20T11:41:13.487Z,28.00
2018-09-20T11:42:13.037Z,27.72
2018-09-20T11:43:14.344Z,27.58
2018-09-20T11:44:13.947Z,27.75
2018-09-20T11:55:13.530Z,27.19
2018-09-20T11:56:12.124Z,27.30
2018-09-20T12:00:20.800Z,26.98
2018-09-20T12:01:19.650Z,26.95
2018-09-20T12:03:18.831Z,26.71
2018-09-20T12:04:20.378Z,26.56
2018-09-20T12:06:23.646Z,26.85
2018-09-20T12:07:23.599Z,27.30
2018-09-20T12:09:29.920Z,27.98
2018-09-20T12:10:27.854Z,28.25
2018-09-20T12:19:22.634Z,28.75
2018-09-20T12:20:23.143Z,28.31
2018-09-20T12:22:28.340Z,28.84
2018-09-20T12:23:28.837Z,29.40
2018-09-20T12:32:10.175Z,28.71
2018-09-20T12:45:00.454Z,29.71
2018-09-20T12:45:58.924Z,29.83
2018-09-20T12:54:43.816Z,29.91
2018-09-20T13:06:58.831Z,30.11
2018-09-20T13:07:57.753Z,30.40
2018-09-20T13:08:58.215Z,30.60
2018-09-20T13:09:58.270Z,29.78
2018-09-20T13:10:58.182Z,29.99
2018-09-20T13:11:57.999Z,29.70
2018-09-20T13:12:58.309Z,29.98
2018-09-20T13:13:56.986Z,30.26
2018-09-20T13:16:38.013Z,30.48
2018-09-20T13:17:38.427Z,30.40
2018-09-20T13:18:38.686Z,29.41
2018-09-20T13:19:38.500Z,29.44
2018-09-20T13:20:38.866Z,29.68
2018-09-20T13:40:14.477Z,31.39
2018-09-20T13:41:14.163Z,31.44
2018-09-20T13:44:54.310Z,31.82
2018-09-20T13:57:51.525Z,31.60
2018-09-20T13:58:50.846Z,31.45
2018-09-20T14:09:18.394Z,31.02
2018-09-20T14:10:18.358Z,30.86
2018-09-20T14:12:23.923Z,31.14
2018-09-20T14:13:25.400Z,31.45
2018-09-20T14:14:23.537Z,32.01
2018-09-20T14:15:23.745Z,31.26
2018-09-20T14:16:23.269Z,31.64
2018-09-20T14:17:21.725Z,32.26
2018-09-20T14:18:21.689Z,31.70
2018-09-20T14:19:21.494Z,32.61
2018-09-20T14:20:21.520Z,32.53
2018-09-20T14:21:21.508Z,32.26
2018-09-20T14:22:21.561Z,32.64
2018-09-20T14:23:21.453Z,32.08
2018-09-20T14:24:21.471Z,31.78
2018-09-20T14:25:21.414Z,32.01
2018-09-20T14:26:21.721Z,32.14
2018-09-20T14:27:21.392Z,32.88
2018-09-20T14:28:21.494Z,32.50
2018-09-20T14:29:21.372Z,32.76
2018-09-20T14:30:21.516Z,32.76
2018-09-20T14:31:21.415Z,33.06
2018-09-20T14:32:21.361Z,33.17
2018-09-20T14:33:21.501Z,33.03
2018-09-20T14:34:21.409Z,33.17
2018-09-20T14:35:21.435Z,32.77
2018-09-20T14:36:21.586Z,32.53
2018-09-20T14:37:21.636Z,32.75
2018-09-20T14:38:21.344Z,32.51
2018-09-20T14:39:21.275Z,33.52
2018-09-20T14:40:21.353Z,33.74
2018-09-20T14:41:21.259Z,33.49
2018-09-20T14:42:21.266Z,33.86
2018-09-20T14:43:21.336Z,33.33
2018-09-20T14:44:21.278Z,32.72
2018-09-20T14:45:21.279Z,32.09
2018-09-20T14:46:21.345Z,32.23
2018-09-20T14:47:21.185Z,31.97
2018-09-20T14:48:21.226Z,31.51
2018-09-20T14:49:21.292Z,31.61
2018-09-20T14:50:21.312Z,31.42
2018-09-20T14:51:21.154Z,31.98
2018-09-20T14:52:21.292Z,31.97
2018-09-20T14:53:21.143Z,32.33
2018-09-20T14:54:21.306Z,32.45
2018-09-20T14:55:21.111Z,32.94
2018-09-20T14:56:21.243Z,33.16
2018-09-20T14:57:21.088Z,33.17
2018-09-20T14:58:21.228Z,33.01
2018-09-20T14:59:21.084Z,32.83
2018-09-20T15:00:21.416Z,32.33
2018-09-20T15:01:21.126Z,32.27
2018-09-20T15:02:21.180Z,32.46
2018-09-20T15:03:21.202Z,32.80
2018-09-20T15:04:21.051Z,32.31
2018-09-20T15:05:21.258Z,32.64
2018-09-20T15:06:21.017Z,32.50
2018-09-20T15:07:21.405Z,32.83
2018-09-20T15:08:20.987Z,32.87
2018-09-20T15:09:21.128Z,32.42
2018-09-20T15:10:20.975Z,31.84
2018-09-20T15:11:21.084Z,32.13
2018-09-20T15:12:20.987Z,32.85
2018-09-20T15:13:21.159Z,33.20
2018-09-20T15:14:21.010Z,33.78
2018-09-20T15:15:21.059Z,33.45
2018-09-20T15:16:20.968Z,33.01
2018-09-20T15:17:20.915Z,33.04
2018-09-20T15:18:20.895Z,33.20
2018-09-20T15:19:20.914Z,32.99
2018-09-20T15:20:20.896Z,33.06
2018-09-20T15:21:20.916Z,33.32
2018-09-20T15:22:20.862Z,33.74
2018-09-20T15:23:20.856Z,33.20
2018-09-20T15:24:20.982Z,33.24
2018-09-20T15:25:20.844Z,32.63
2018-09-20T15:26:21.007Z,32.83
2018-09-20T15:27:20.894Z,33.01
2018-09-20T15:28:20.907Z,32.63
2018-09-20T15:29:20.811Z,32.65
2018-09-20T15:30:20.816Z,32.72
2018-09-20T15:31:20.932Z,32.57
2018-09-20T15:32:20.775Z,32.35
2018-09-20T15:33:20.762Z,32.61
2018-09-20T15:34:20.808Z,32.43
2018-09-20T15:35:20.745Z,32.61
2018-09-20T15:36:20.954Z,32.28
2018-09-20T15:37:20.810Z,32.02
2018-09-20T15:38:21.633Z,31.86
2018-09-20T15:39:20.831Z,31.49
2018-09-20T15:40:20.689Z,31.49
2018-09-20T15:41:20.768Z,31.04
2018-09-20T15:42:20.691Z,30.83
2018-09-20T15:43:20.743Z,31.02
2018-09-20T15:44:20.666Z,31.56
2018-09-20T15:45:21.324Z,32.04
2018-09-20T15:46:20.684Z,32.41
2018-09-20T15:47:20.748Z,33.16
2018-09-20T15:48:20.618Z,32.91
2018-09-20T15:49:20.656Z,32.33
2018-09-20T15:50:20.666Z,32.60
2018-09-20T15:51:20.594Z,32.31
2018-09-20T15:52:20.716Z,32.24
2018-09-20T15:53:20.625Z,32.26
2018-09-20T15:54:20.589Z,32.58
2018-09-20T15:55:20.578Z,32.35
2018-09-20T15:56:20.771Z,32.04
2018-09-20T15:57:20.623Z,31.98
2018-09-20T15:58:20.710Z,31.46
2018-09-20T15:59:34.513Z,31.68
2018-09-20T16:11:07.977Z,32.08
2018-09-20T16:15:29.631Z,32.16
2018-09-20T16:16:29.712Z,32.14
2018-09-20T16:22:07.905Z,31.44
2018-09-20T16:23:09.480Z,31.11
2018-09-20T16:25:53.649Z,29.77
2018-09-20T16:26:53.440Z,29.54
2018-09-20T16:37:31.113Z,29.04
2018-09-20T16:38:09.997Z,29.07
2018-09-20T16:48:50.790Z,28.62
2018-09-20T17:06:45.699Z,27.63
2018-09-20T17:07:44.357Z,27.63
2018-09-20T17:28:26.964Z,27.01
2018-09-20T17:29:26.609Z,26.85
2018-09-20T17:30:25.520Z,26.85
2018-09-20T17:31:25.840Z,26.85
2018-09-20T17:32:28.832Z,26.88
2018-09-20T18:01:30.189Z,22.13
2018-09-20T18:02:30.003Z,22.13
2018-09-20T18:03:30.528Z,22.13
2018-09-20T18:10:52.724Z,22.31
2018-09-20T18:11:55.774Z,22.40
2018-09-20T18:12:52.436Z,22.41
2018-09-20T18:13:51.510Z,22.44
2018-09-20T18:14:52.799Z,22.46
2018-09-20T18:15:53.346Z,22.36
2018-09-20T18:16:52.738Z,22.44
2018-09-20T18:17:53.698Z,22.48
2018-09-20T18:18:53.287Z,22.41
2018-09-20T18:38:58.027Z,22.13
2018-09-20T18:43:12.498Z,22.13
